sensor_id;sensor_type;location;lat;lon;timestamp;temperature;humidity
13433;DHT22;6789;47.678;9.158;2024-02-04T00:02:12;5.30;99.90
13433;DHT22;6789;47.678;9.158;2024-02-04T00:07:05;5.40;99.90
13433;DHT22;6789;47.678;9.158;2024-02-04T00:11:57;5.30;99.90
13433;DHT22;6789;47.678;9.158;2024-02-04T00:27:19;5.10;99.90
13433;DHT22;6789;47.678;9.158;2024-02-04T00:49:13;5.10;99.90
13433;DHT22;6789;47.678;9.158;2024-02-04T01:00:13;5.00;99.90
13433;DHT22;6789;47.678;9.158;2024-02-04T01:05:21;5.00;99.90
13433;DHT22;6789;47.678;9.158;2024-02-04T01:10:48;5.00;99.90
13433;DHT22;6789;47.678;9.158;2024-02-04T01:27:29;4.90;99.90
13433;DHT22;6789;47.678;9.158;2024-02-04T02:06:05;5.30;99.90
13433;DHT22;6789;47.678;9.158;2024-02-04T02:27:50;5.20;99.90
13433;DHT22;6789;47.678;9.158;2024-02-04T02:54:02;5.50;99.90
13433;DHT22;6789;47.678;9.158;2024-02-04T02:58:53;5.30;99.90
13433;DHT22;6789;47.678;9.158;2024-02-04T03:03:45;5.50;99.90
13433;DHT22;6789;47.678;9.158;2024-02-04T03:08:37;5.60;99.90
13433;DHT22;6789;47.678;9.158;2024-02-04T03:13:29;5.60;99.90
13433;DHT22;6789;47.678;9.158;2024-02-04T03:18:21;5.70;99.90
13433;DHT22;6789;47.678;9.158;2024-02-04T03:23:13;5.70;99.90
13433;DHT22;6789;47.678;9.158;2024-02-04T03:28:05;5.70;99.90
13433;DHT22;6789;47.678;9.158;2024-02-04T03:32:57;5.80;99.90
13433;DHT22;6789;47.678;9.158;2024-02-04T03:37:49;5.80;99.90
13433;DHT22;6789;47.678;9.158;2024-02-04T03:42:40;5.80;99.90
13433;DHT22;6789;47.678;9.158;2024-02-04T03:47:32;5.80;99.90
13433;DHT22;6789;47.678;9.158;2024-02-04T03:52:24;5.80;99.90
13433;DHT22;6789;47.678;9.158;2024-02-04T03:57:16;6.00;99.90
13433;DHT22;6789;47.678;9.158;2024-02-04T04:02:08;6.00;99.90
13433;DHT22;6789;47.678;9.158;2024-02-04T04:07:00;6.00;99.90
13433;DHT22;6789;47.678;9.158;2024-02-04T04:11:52;6.00;99.90
13433;DHT22;6789;47.678;9.158;2024-02-04T04:16:44;6.00;99.90
13433;DHT22;6789;47.678;9.158;2024-02-04T04:21:37;6.10;99.90
13433;DHT22;6789;47.678;9.158;2024-02-04T04:26:29;6.10;99.90
13433;DHT22;6789;47.678;9.158;2024-02-04T04:31:21;6.20;99.90
13433;DHT22;6789;47.678;9.158;2024-02-04T04:36:13;6.10;99.90
13433;DHT22;6789;47.678;9.158;2024-02-04T04:41:05;6.10;99.90
13433;DHT22;6789;47.678;9.158;2024-02-04T04:46:01;6.10;99.90
13433;DHT22;6789;47.678;9.158;2024-02-04T04:50:52;6.10;99.90
13433;DHT22;6789;47.678;9.158;2024-02-04T04:55:44;6.00;99.90
13433;DHT22;6789;47.678;9.158;2024-02-04T05:00:50;5.80;99.90
13433;DHT22;6789;47.678;9.158;2024-02-04T05:05:42;5.80;99.90
13433;DHT22;6789;47.678;9.158;2024-02-04T05:10:34;5.90;99.90
13433;DHT22;6789;47.678;9.158;2024-02-04T05:15:25;5.90;99.90
13433;DHT22;6789;47.678;9.158;2024-02-04T05:20:17;6.10;99.90
13433;DHT22;6789;47.678;9.158;2024-02-04T05:25:09;6.10;99.90
13433;DHT22;6789;47.678;9.158;2024-02-04T05:30:02;6.00;99.90
13433;DHT22;6789;47.678;9.158;2024-02-04T05:34:54;6.10;99.90
13433;DHT22;6789;47.678;9.158;2024-02-04T05:39:46;6.10;99.90
13433;DHT22;6789;47.678;9.158;2024-02-04T05:44:38;6.10;99.90
13433;DHT22;6789;47.678;9.158;2024-02-04T05:49:30;6.10;99.90
13433;DHT22;6789;47.678;9.158;2024-02-04T05:54:22;6.10;99.90
13433;DHT22;6789;47.678;9.158;2024-02-04T05:59:13;6.20;99.90
13433;DHT22;6789;47.678;9.158;2024-02-04T06:04:07;6.10;99.90
13433;DHT22;6789;47.678;9.158;2024-02-04T06:09:00;6.20;99.90
13433;DHT22;6789;47.678;9.158;2024-02-04T06:13:52;6.20;99.90
13433;DHT22;6789;47.678;9.158;2024-02-04T06:18:43;6.10;99.90
13433;DHT22;6789;47.678;9.158;2024-02-04T06:23:38;6.10;99.90
13433;DHT22;6789;47.678;9.158;2024-02-04T06:28:31;6.10;99.90
13433;DHT22;6789;47.678;9.158;2024-02-04T06:33:23;6.10;99.90
13433;DHT22;6789;47.678;9.158;2024-02-04T06:38:17;6.10;99.90
13433;DHT22;6789;47.678;9.158;2024-02-04T06:43:08;6.10;99.90
13433;DHT22;6789;47.678;9.158;2024-02-04T06:48:00;6.10;99.90
13433;DHT22;6789;47.678;9.158;2024-02-04T06:52:52;6.10;99.90
13433;DHT22;6789;47.678;9.158;2024-02-04T06:57:44;6.00;99.90
13433;DHT22;6789;47.678;9.158;2024-02-04T07:02:36;5.90;99.90
13433;DHT22;6789;47.678;9.158;2024-02-04T07:07:27;5.80;99.90
13433;DHT22;6789;47.678;9.158;2024-02-04T07:12:19;5.80;99.90
13433;DHT22;6789;47.678;9.158;2024-02-04T07:17:11;5.80;99.90
13433;DHT22;6789;47.678;9.158;2024-02-04T07:22:03;5.80;99.90
13433;DHT22;6789;47.678;9.158;2024-02-04T07:26:55;5.90;99.90
13433;DHT22;6789;47.678;9.158;2024-02-04T07:31:47;5.90;99.90
13433;DHT22;6789;47.678;9.158;2024-02-04T07:36:39;6.00;99.90
13433;DHT22;6789;47.678;9.158;2024-02-04T07:41:31;6.10;99.90
13433;DHT22;6789;47.678;9.158;2024-02-04T07:46:23;6.30;99.90
13433;DHT22;6789;47.678;9.158;2024-02-04T07:51:15;6.50;99.90
13433;DHT22;6789;47.678;9.158;2024-02-04T07:56:07;6.30;99.90
13433;DHT22;6789;47.678;9.158;2024-02-04T08:00:59;6.30;99.90
13433;DHT22;6789;47.678;9.158;2024-02-04T08:05:51;6.50;99.90
13433;DHT22;6789;47.678;9.158;2024-02-04T08:10:43;6.70;99.90
13433;DHT22;6789;47.678;9.158;2024-02-04T08:15:48;6.80;99.90
13433;DHT22;6789;47.678;9.158;2024-02-04T08:20:41;7.00;99.90
13433;DHT22;6789;47.678;9.158;2024-02-04T08:25:32;7.20;99.90
13433;DHT22;6789;47.678;9.158;2024-02-04T08:30:24;7.20;99.90
13433;DHT22;6789;47.678;9.158;2024-02-04T08:35:16;7.30;99.90
13433;DHT22;6789;47.678;9.158;2024-02-04T08:40:08;7.30;99.90
13433;DHT22;6789;47.678;9.158;2024-02-04T08:45:02;7.50;99.90
13433;DHT22;6789;47.678;9.158;2024-02-04T08:49:54;7.80;99.90
13433;DHT22;6789;47.678;9.158;2024-02-04T08:54:46;8.00;99.90
13433;DHT22;6789;47.678;9.158;2024-02-04T08:59:38;8.30;99.90
13433;DHT22;6789;47.678;9.158;2024-02-04T09:04:30;8.40;99.90
13433;DHT22;6789;47.678;9.158;2024-02-04T09:09:22;8.60;99.90
13433;DHT22;6789;47.678;9.158;2024-02-04T09:14:14;8.70;99.90
13433;DHT22;6789;47.678;9.158;2024-02-04T09:19:05;8.80;99.90
13433;DHT22;6789;47.678;9.158;2024-02-04T09:23:57;8.70;99.90
13433;DHT22;6789;47.678;9.158;2024-02-04T09:28:49;8.60;99.90
13433;DHT22;6789;47.678;9.158;2024-02-04T09:33:41;8.60;99.90
13433;DHT22;6789;47.678;9.158;2024-02-04T09:38:33;8.50;99.90
13433;DHT22;6789;47.678;9.158;2024-02-04T09:43:26;8.50;99.90
13433;DHT22;6789;47.678;9.158;2024-02-04T09:48:19;8.50;99.90
13433;DHT22;6789;47.678;9.158;2024-02-04T09:53:14;8.60;99.90
13433;DHT22;6789;47.678;9.158;2024-02-04T09:58:13;8.60;99.90
13433;DHT22;6789;47.678;9.158;2024-02-04T10:03:05;8.60;99.90
13433;DHT22;6789;47.678;9.158;2024-02-04T10:07:57;8.80;99.90
13433;DHT22;6789;47.678;9.158;2024-02-04T10:12:49;8.90;99.90
13433;DHT22;6789;47.678;9.158;2024-02-04T10:18:10;8.80;99.90
13433;DHT22;6789;47.678;9.158;2024-02-04T10:23:02;8.80;99.90
13433;DHT22;6789;47.678;9.158;2024-02-04T10:28:09;8.80;99.90
13433;DHT22;6789;47.678;9.158;2024-02-04T10:33:02;8.80;99.90
13433;DHT22;6789;47.678;9.158;2024-02-04T10:37:54;8.80;99.90
13433;DHT22;6789;47.678;9.158;2024-02-04T10:42:46;8.90;99.90
13433;DHT22;6789;47.678;9.158;2024-02-04T10:47:40;8.70;99.90
13433;DHT22;6789;47.678;9.158;2024-02-04T10:52:37;8.70;99.90
13433;DHT22;6789;47.678;9.158;2024-02-04T10:57:31;8.80;99.90
13433;DHT22;6789;47.678;9.158;2024-02-04T11:02:23;8.80;99.90
13433;DHT22;6789;47.678;9.158;2024-02-04T11:07:17;8.80;99.90
13433;DHT22;6789;47.678;9.158;2024-02-04T11:12:12;8.90;99.90
13433;DHT22;6789;47.678;9.158;2024-02-04T11:27:53;9.10;99.90
13433;DHT22;6789;47.678;9.158;2024-02-04T11:32:45;9.30;99.90
13433;DHT22;6789;47.678;9.158;2024-02-04T11:37:38;9.60;99.90
13433;DHT22;6789;47.678;9.158;2024-02-04T11:42:34;9.60;99.90
13433;DHT22;6789;47.678;9.158;2024-02-04T11:47:26;9.60;99.90
13433;DHT22;6789;47.678;9.158;2024-02-04T11:52:32;9.80;99.90
13433;DHT22;6789;47.678;9.158;2024-02-04T11:57:25;10.00;99.90
13433;DHT22;6789;47.678;9.158;2024-02-04T12:02:18;10.30;99.90
13433;DHT22;6789;47.678;9.158;2024-02-04T12:07:10;10.30;99.90
13433;DHT22;6789;47.678;9.158;2024-02-04T12:12:02;10.50;99.90
13433;DHT22;6789;47.678;9.158;2024-02-04T12:16:54;10.80;99.90
13433;DHT22;6789;47.678;9.158;2024-02-04T12:21:48;11.00;99.90
13433;DHT22;6789;47.678;9.158;2024-02-04T12:26:40;11.10;99.90
13433;DHT22;6789;47.678;9.158;2024-02-04T12:31:32;11.00;99.90
13433;DHT22;6789;47.678;9.158;2024-02-04T12:36:26;11.30;99.90
13433;DHT22;6789;47.678;9.158;2024-02-04T12:41:18;11.30;99.90
13433;DHT22;6789;47.678;9.158;2024-02-04T12:46:10;11.40;99.90
13433;DHT22;6789;47.678;9.158;2024-02-04T12:51:04;11.60;99.90
13433;DHT22;6789;47.678;9.158;2024-02-04T12:55:59;11.80;99.90
13433;DHT22;6789;47.678;9.158;2024-02-04T13:01:00;11.90;99.90
13433;DHT22;6789;47.678;9.158;2024-02-04T13:05:57;11.90;99.90
13433;DHT22;6789;47.678;9.158;2024-02-04T13:10:56;12.10;99.90
13433;DHT22;6789;47.678;9.158;2024-02-04T13:15:48;12.00;99.90
13433;DHT22;6789;47.678;9.158;2024-02-04T13:20:41;12.00;99.90
13433;DHT22;6789;47.678;9.158;2024-02-04T13:25:34;12.20;99.90
13433;DHT22;6789;47.678;9.158;2024-02-04T13:30:26;12.00;99.90
13433;DHT22;6789;47.678;9.158;2024-02-04T13:35:18;11.90;99.90
13433;DHT22;6789;47.678;9.158;2024-02-04T13:40:11;11.90;99.90
13433;DHT22;6789;47.678;9.158;2024-02-04T13:45:03;11.80;99.90
13433;DHT22;6789;47.678;9.158;2024-02-04T13:49:56;11.70;99.90
13433;DHT22;6789;47.678;9.158;2024-02-04T13:54:51;11.70;99.90
13433;DHT22;6789;47.678;9.158;2024-02-04T13:59:43;11.60;99.90
13433;DHT22;6789;47.678;9.158;2024-02-04T14:04:35;11.60;99.90
13433;DHT22;6789;47.678;9.158;2024-02-04T14:09:27;11.60;99.90
13433;DHT22;6789;47.678;9.158;2024-02-04T14:14:20;11.80;99.90
13433;DHT22;6789;47.678;9.158;2024-02-04T14:19:12;11.70;99.90
13433;DHT22;6789;47.678;9.158;2024-02-04T14:24:05;11.70;99.90
13433;DHT22;6789;47.678;9.158;2024-02-04T14:28:57;11.80;99.90
13433;DHT22;6789;47.678;9.158;2024-02-04T14:33:49;11.70;99.90
13433;DHT22;6789;47.678;9.158;2024-02-04T14:38:42;11.50;99.90
13433;DHT22;6789;47.678;9.158;2024-02-04T14:43:51;11.50;99.90
13433;DHT22;6789;47.678;9.158;2024-02-04T14:49:24;11.30;99.90
13433;DHT22;6789;47.678;9.158;2024-02-04T14:54:21;11.10;99.90
13433;DHT22;6789;47.678;9.158;2024-02-04T14:59:50;10.90;99.90
13433;DHT22;6789;47.678;9.158;2024-02-04T15:04:56;10.90;99.90
13433;DHT22;6789;47.678;9.158;2024-02-04T15:09:48;10.90;99.90
13433;DHT22;6789;47.678;9.158;2024-02-04T15:14:42;11.00;99.90
13433;DHT22;6789;47.678;9.158;2024-02-04T15:19:34;10.90;99.90
13433;DHT22;6789;47.678;9.158;2024-02-04T15:24:28;10.90;99.90
13433;DHT22;6789;47.678;9.158;2024-02-04T15:29:20;10.90;99.90
13433;DHT22;6789;47.678;9.158;2024-02-04T15:34:25;10.90;99.90
13433;DHT22;6789;47.678;9.158;2024-02-04T15:39:18;10.80;99.90
13433;DHT22;6789;47.678;9.158;2024-02-04T15:44:12;10.80;99.90
13433;DHT22;6789;47.678;9.158;2024-02-04T15:54:26;10.80;99.90
13433;DHT22;6789;47.678;9.158;2024-02-04T16:00:06;10.60;99.90
13433;DHT22;6789;47.678;9.158;2024-02-04T16:05:28;10.60;99.90
13433;DHT22;6789;47.678;9.158;2024-02-04T16:10:26;10.50;99.90
13433;DHT22;6789;47.678;9.158;2024-02-04T16:15:22;10.50;99.90
13433;DHT22;6789;47.678;9.158;2024-02-04T16:20:29;10.20;99.90
13433;DHT22;6789;47.678;9.158;2024-02-04T16:25:22;10.00;99.90
13433;DHT22;6789;47.678;9.158;2024-02-04T16:30:26;9.90;99.90
13433;DHT22;6789;47.678;9.158;2024-02-04T16:35:18;9.80;99.90
13433;DHT22;6789;47.678;9.158;2024-02-04T16:40:28;9.70;99.90
13433;DHT22;6789;47.678;9.158;2024-02-04T16:45:20;9.70;99.90
13433;DHT22;6789;47.678;9.158;2024-02-04T16:50:12;9.60;99.90
13433;DHT22;6789;47.678;9.158;2024-02-04T16:55:05;9.60;99.90
13433;DHT22;6789;47.678;9.158;2024-02-04T16:59:57;9.40;99.90
13433;DHT22;6789;47.678;9.158;2024-02-04T17:05:09;9.30;99.90
13433;DHT22;6789;47.678;9.158;2024-02-04T17:10:17;9.20;99.90
13433;DHT22;6789;47.678;9.158;2024-02-04T17:15:29;9.10;99.90
13433;DHT22;6789;47.678;9.158;2024-02-04T17:20:45;9.00;99.90
13433;DHT22;6789;47.678;9.158;2024-02-04T17:26:02;9.00;99.90
13433;DHT22;6789;47.678;9.158;2024-02-04T17:31:51;8.90;99.90
13433;DHT22;6789;47.678;9.158;2024-02-04T17:37:07;8.80;99.90
13433;DHT22;6789;47.678;9.158;2024-02-04T17:42:46;8.80;99.90
13433;DHT22;6789;47.678;9.158;2024-02-04T17:47:53;8.70;99.90
13433;DHT22;6789;47.678;9.158;2024-02-04T17:53:38;8.60;99.90
13433;DHT22;6789;47.678;9.158;2024-02-04T17:58:58;8.60;99.90
13433;DHT22;6789;47.678;9.158;2024-02-04T18:04:04;8.50;99.90
13433;DHT22;6789;47.678;9.158;2024-02-04T18:09:11;8.50;99.90
13433;DHT22;6789;47.678;9.158;2024-02-04T18:14:20;8.40;99.90
13433;DHT22;6789;47.678;9.158;2024-02-04T18:19:42;8.40;99.90
13433;DHT22;6789;47.678;9.158;2024-02-04T18:25:11;8.30;99.90
13433;DHT22;6789;47.678;9.158;2024-02-04T18:30:21;8.40;99.90
13433;DHT22;6789;47.678;9.158;2024-02-04T18:35:29;8.20;99.90
13433;DHT22;6789;47.678;9.158;2024-02-04T18:40:36;8.10;99.90
13433;DHT22;6789;47.678;9.158;2024-02-04T18:45:43;8.20;99.90
13433;DHT22;6789;47.678;9.158;2024-02-04T18:50:53;8.20;99.90
13433;DHT22;6789;47.678;9.158;2024-02-04T18:56:03;8.40;99.90
13433;DHT22;6789;47.678;9.158;2024-02-04T19:01:59;8.40;99.90
13433;DHT22;6789;47.678;9.158;2024-02-04T19:07:25;8.50;99.90
13433;DHT22;6789;47.678;9.158;2024-02-04T19:12:17;8.30;99.90
13433;DHT22;6789;47.678;9.158;2024-02-04T19:17:09;8.20;99.90
13433;DHT22;6789;47.678;9.158;2024-02-04T19:22:01;8.20;99.90
13433;DHT22;6789;47.678;9.158;2024-02-04T19:26:53;8.20;99.90
13433;DHT22;6789;47.678;9.158;2024-02-04T19:31:45;8.10;99.90
13433;DHT22;6789;47.678;9.158;2024-02-04T19:36:41;8.00;99.90
13433;DHT22;6789;47.678;9.158;2024-02-04T19:41:38;8.00;99.90
13433;DHT22;6789;47.678;9.158;2024-02-04T19:46:30;8.00;99.90
13433;DHT22;6789;47.678;9.158;2024-02-04T19:51:36;8.00;99.90
13433;DHT22;6789;47.678;9.158;2024-02-04T19:56:43;7.90;99.90
13433;DHT22;6789;47.678;9.158;2024-02-04T20:01:36;7.90;99.90
13433;DHT22;6789;47.678;9.158;2024-02-04T20:06:29;7.90;99.90
13433;DHT22;6789;47.678;9.158;2024-02-04T20:11:21;7.90;99.90
13433;DHT22;6789;47.678;9.158;2024-02-04T20:16:13;7.90;99.90
13433;DHT22;6789;47.678;9.158;2024-02-04T20:21:05;7.80;99.90
13433;DHT22;6789;47.678;9.158;2024-02-04T20:25:57;7.80;99.90
13433;DHT22;6789;47.678;9.158;2024-02-04T20:31:02;7.80;99.90
13433;DHT22;6789;47.678;9.158;2024-02-04T20:35:56;7.70;99.90
13433;DHT22;6789;47.678;9.158;2024-02-04T20:41:02;7.70;99.90
13433;DHT22;6789;47.678;9.158;2024-02-04T20:45:54;7.70;99.90
13433;DHT22;6789;47.678;9.158;2024-02-04T20:50:46;7.80;99.90
13433;DHT22;6789;47.678;9.158;2024-02-04T20:55:38;7.80;99.90
13433;DHT22;6789;47.678;9.158;2024-02-04T21:00:30;7.70;99.90
13433;DHT22;6789;47.678;9.158;2024-02-04T21:05:24;7.70;99.90
13433;DHT22;6789;47.678;9.158;2024-02-04T21:10:18;7.70;99.90
13433;DHT22;6789;47.678;9.158;2024-02-04T21:15:10;7.60;99.90
13433;DHT22;6789;47.678;9.158;2024-02-04T21:20:02;7.60;99.90
13433;DHT22;6789;47.678;9.158;2024-02-04T21:24:57;7.50;99.90
13433;DHT22;6789;47.678;9.158;2024-02-04T21:29:54;7.30;99.90
13433;DHT22;6789;47.678;9.158;2024-02-04T21:34:46;7.10;99.90
13433;DHT22;6789;47.678;9.158;2024-02-04T21:39:38;6.90;99.90
13433;DHT22;6789;47.678;9.158;2024-02-04T21:44:30;6.80;99.90
13433;DHT22;6789;47.678;9.158;2024-02-04T21:49:21;6.70;99.90
13433;DHT22;6789;47.678;9.158;2024-02-04T21:54:13;6.50;99.90
13433;DHT22;6789;47.678;9.158;2024-02-04T21:59:19;6.40;99.90
13433;DHT22;6789;47.678;9.158;2024-02-04T22:04:12;6.40;99.90
13433;DHT22;6789;47.678;9.158;2024-02-04T22:09:23;6.30;99.90
13433;DHT22;6789;47.678;9.158;2024-02-04T22:14:14;6.20;99.90
13433;DHT22;6789;47.678;9.158;2024-02-04T22:19:07;6.30;99.90
13433;DHT22;6789;47.678;9.158;2024-02-04T22:23:59;6.20;99.90
13433;DHT22;6789;47.678;9.158;2024-02-04T22:28:51;6.20;99.90
13433;DHT22;6789;47.678;9.158;2024-02-04T22:33:43;6.10;99.90
13433;DHT22;6789;47.678;9.158;2024-02-04T22:38:35;6.10;99.90
13433;DHT22;6789;47.678;9.158;2024-02-04T22:43:27;6.10;99.90
13433;DHT22;6789;47.678;9.158;2024-02-04T22:48:19;6.10;99.90
13433;DHT22;6789;47.678;9.158;2024-02-04T22:53:10;6.00;99.90
13433;DHT22;6789;47.678;9.158;2024-02-04T22:58:02;6.20;99.90
13433;DHT22;6789;47.678;9.158;2024-02-04T23:02:55;6.30;99.90
13433;DHT22;6789;47.678;9.158;2024-02-04T23:08:01;6.50;99.90
13433;DHT22;6789;47.678;9.158;2024-02-04T23:12:54;6.70;99.90
13433;DHT22;6789;47.678;9.158;2024-02-04T23:17:47;6.80;99.90
13433;DHT22;6789;47.678;9.158;2024-02-04T23:22:40;6.80;99.90
13433;DHT22;6789;47.678;9.158;2024-02-04T23:27:32;6.80;99.90
13433;DHT22;6789;47.678;9.158;2024-02-04T23:32:24;6.90;99.90
13433;DHT22;6789;47.678;9.158;2024-02-04T23:37:16;6.80;99.90
13433;DHT22;6789;47.678;9.158;2024-02-04T23:42:09;6.80;99.90
13433;DHT22;6789;47.678;9.158;2024-02-04T23:47:01;6.90;99.90
13433;DHT22;6789;47.678;9.158;2024-02-04T23:51:53;6.80;99.90
13433;DHT22;6789;47.678;9.158;2024-02-04T23:56:45;6.60;99.90
